Time,TemperatureF,DewpointF,PressureIn,WindDirection,WindDirectionDegrees,WindSpeedMPH,WindSpeedGustMPH,Humidity,HourlyPrecipIn,Conditions,Clouds,dailyrainin,SoftwareType,DateUTC
2013-03-20 00:02:00,10.4,0.3,29.90,West,270,3.7,-999.0,63,-99.99,,,0.00,Acu-Link.com,2013-03-20 05:02:00,
2013-03-20 00:17:00,9.7,0.0,29.91,WNW,292,5.8,-999.0,64,-99.99,,,0.00,Acu-Link.com,2013-03-20 05:17:00,
2013-03-20 00:32:00,8.8,-0.2,29.91,West,270,5.3,-999.0,66,-99.99,,,0.00,Acu-Link.com,2013-03-20 05:32:00,
2013-03-20 00:47:00,8.6,-0.4,29.91,WSW,247,3.2,-999.0,66,-99.99,,,0.00,Acu-Link.com,2013-03-20 05:47:00,
2013-03-20 01:02:00,7.9,-0.7,29.91,WSW,247,3.7,-999.0,67,-99.99,,,0.00,Acu-Link.com,2013-03-20 06:02:00,
2013-03-20 01:17:00,7.3,-1.3,29.91,WNW,292,3.7,-999.0,67,-99.99,,,0.00,Acu-Link.com,2013-03-20 06:17:00,
2013-03-20 01:33:00,7.0,-1.6,29.91,SW,225,3.2,-999.0,67,-99.99,,,0.00,Acu-Link.com,2013-03-20 06:33:00,
2013-03-20 01:48:00,6.6,-2.0,29.91,West,270,2.7,-999.0,67,-99.99,,,0.00,Acu-Link.com,2013-03-20 06:48:00,
2013-03-20 02:03:00,6.1,-2.2,29.93,WSW,247,3.7,-999.0,68,-99.99,,,0.00,Acu-Link.com,2013-03-20 07:03:00,
2013-03-20 02:19:00,5.7,-2.5,29.93,West,270,2.7,-999.0,68,-99.99,,,0.00,Acu-Link.com,2013-03-20 07:19:00,
2013-03-20 02:34:00,5.0,-2.9,29.92,WNW,292,4.7,-999.0,69,-99.99,,,0.00,Acu-Link.com,2013-03-20 07:34:00,
2013-03-20 02:49:00,4.6,-3.3,29.92,WSW,247,2.7,-999.0,69,-99.99,,,0.00,Acu-Link.com,2013-03-20 07:49:00,
2013-03-20 03:04:00,4.6,-3.3,29.93,WNW,292,4.2,-999.0,69,-99.99,,,0.00,Acu-Link.com,2013-03-20 08:04:00,
2013-03-20 03:37:00,4.6,-3.3,29.92,West,270,3.2,-999.0,69,-99.99,,,0.00,Acu-Link.com,2013-03-20 08:37:00,
2013-03-20 03:52:00,3.2,-4.0,29.92,WSW,247,3.7,-999.0,71,-99.99,,,0.00,Acu-Link.com,2013-03-20 08:52:00,
2013-03-20 04:07:00,2.7,-4.5,29.92,SW,225,3.7,-999.0,71,-99.99,,,0.00,Acu-Link.com,2013-03-20 09:07:00,
2013-03-20 04:22:00,2.3,-4.6,29.93,West,270,3.7,-999.0,72,-99.99,,,0.00,Acu-Link.com,2013-03-20 09:22:00,
2013-03-20 04:37:00,1.9,-5.0,29.94,SW,225,4.7,-999.0,72,-99.99,,,0.00,Acu-Link.com,2013-03-20 09:37:00,
2013-03-20 04:52:00,1.4,-5.2,29.93,WSW,247,3.2,-999.0,73,-99.99,,,0.00,Acu-Link.com,2013-03-20 09:52:00,
2013-03-20 05:07:00,1.0,-5.3,29.93,West,270,4.2,-999.0,74,-99.99,,,0.00,Acu-Link.com,2013-03-20 10:07:00,
2013-03-20 05:22:00,0.5,-5.5,29.93,WSW,247,2.2,-999.0,75,-99.99,,,0.00,Acu-Link.com,2013-03-20 10:22:00,
2013-03-20 05:37:00,0.3,-5.4,29.94,SW,225,3.2,-999.0,76,-99.99,,,0.00,Acu-Link.com,2013-03-20 10:37:00,
2013-03-20 05:52:00,0.1,-4.8,29.93,SW,225,5.3,-999.0,79,-99.99,,,0.00,Acu-Link.com,2013-03-20 10:52:00,
2013-03-20 06:08:00,-0.2,-4.9,29.94,West,270,3.2,-999.0,80,-99.99,,,0.00,Acu-Link.com,2013-03-20 11:08:00,
2013-03-20 06:23:00,-0.4,-4.3,29.93,WSW,247,3.2,-999.0,83,-99.99,,,0.00,Acu-Link.com,2013-03-20 11:23:00,
2013-03-20 06:38:00,-0.4,-3.8,29.94,WNW,292,3.7,-999.0,85,-99.99,,,0.00,Acu-Link.com,2013-03-20 11:38:00,
2013-03-20 06:53:00,-0.4,-3.3,29.94,SW,225,3.7,-999.0,87,-99.99,,,0.00,Acu-Link.com,2013-03-20 11:53:00,
2013-03-20 07:08:00,-0.6,-3.3,29.93,SW,225,2.7,-999.0,88,-99.99,,,0.00,Acu-Link.com,2013-03-20 12:08:00,
2013-03-20 07:24:00,-0.2,-2.9,29.92,SW,225,3.7,-999.0,88,-99.99,,,0.00,Acu-Link.com,2013-03-20 12:24:00,
2013-03-20 07:39:00,0.1,-2.8,29.93,West,270,1.7,-999.0,87,-99.99,,,0.00,Acu-Link.com,2013-03-20 12:39:00,
2013-03-20 07:54:00,0.1,-2.6,29.92,WSW,247,3.7,-999.0,88,-99.99,,,0.00,Acu-Link.com,2013-03-20 12:54:00,
2013-03-20 08:10:00,0.9,-2.5,29.92,WSW,247,3.7,-999.0,85,-99.99,,,0.00,Acu-Link.com,2013-03-20 13:10:00,
2013-03-20 08:25:00,1.9,-1.8,29.91,SW,225,4.2,-999.0,84,-99.99,,,0.00,Acu-Link.com,2013-03-20 13:25:00,
2013-03-20 08:40:00,2.8,-1.7,29.92,SW,225,3.7,-999.0,81,-99.99,,,0.00,Acu-Link.com,2013-03-20 13:40:00,
2013-03-20 08:55:00,3.9,-1.1,29.93,West,270,3.7,-999.0,79,-99.99,,,0.00,Acu-Link.com,2013-03-20 13:55:00,
2013-03-20 09:10:00,5.2,-0.7,29.92,SW,225,3.2,-999.0,76,-99.99,,,0.00,Acu-Link.com,2013-03-20 14:10:00,
2013-03-20 09:25:00,6.3,-0.2,29.91,WSW,247,2.7,-999.0,74,-99.99,,,0.00,Acu-Link.com,2013-03-20 14:25:00,
2013-03-20 09:41:00,7.0,-0.1,29.91,SW,225,4.7,-999.0,72,-99.99,,,0.00,Acu-Link.com,2013-03-20 14:41:00,
2013-03-20 09:56:00,7.9,0.5,29.92,West,270,7.3,-999.0,71,-99.99,,,0.00,Acu-Link.com,2013-03-20 14:56:00,
2013-03-20 10:11:00,8.6,0.9,29.90,NW,315,5.3,-999.0,70,-99.99,,,0.00,Acu-Link.com,2013-03-20 15:11:00,
2013-03-20 10:26:00,8.8,0.7,29.90,WSW,247,5.8,-999.0,69,-99.99,,,0.00,Acu-Link.com,2013-03-20 15:26:00,
2013-03-20 10:42:00,9.5,1.1,29.90,NW,315,5.3,-999.0,68,-99.99,,,0.00,Acu-Link.com,2013-03-20 15:42:00,
2013-03-20 10:57:00,10.4,1.3,29.91,SW,225,5.3,-999.0,66,-99.99,,,0.00,Acu-Link.com,2013-03-20 15:57:00,
2013-03-20 11:12:00,11.1,1.7,29.91,SW,225,6.3,-999.0,65,-99.99,,,0.00,Acu-Link.com,2013-03-20 16:12:00,
2013-03-20 11:27:00,14.4,3.8,29.91,NW,315,3.7,-999.0,62,-99.99,,,0.00,Acu-Link.com,2013-03-20 16:27:00,
2013-03-20 11:42:00,12.4,2.9,29.92,SW,225,3.7,-999.0,65,-99.99,,,0.00,Acu-Link.com,2013-03-20 16:42:00,
2013-03-20 11:57:00,12.6,2.1,29.92,West,270,4.2,-999.0,62,-99.99,,,0.00,Acu-Link.com,2013-03-20 16:57:00,
2013-03-20 12:12:00,13.6,2.0,29.91,WNW,292,3.7,-999.0,59,-99.99,,,0.00,Acu-Link.com,2013-03-20 17:12:00,
2013-03-20 12:27:00,14.0,2.3,29.92,WSW,247,4.7,-999.0,59,-99.99,,,0.00,Acu-Link.com,2013-03-20 17:27:00,
2013-03-20 12:42:00,15.4,3.3,29.91,NNW,337,3.2,-999.0,58,-99.99,,,0.00,Acu-Link.com,2013-03-20 17:42:00,
2013-03-20 12:58:00,14.9,3.2,29.91,West,270,3.7,-999.0,59,-99.99,,,0.00,Acu-Link.com,2013-03-20 17:58:00,
2013-03-20 13:13:00,15.1,2.6,29.91,WNW,292,4.2,-999.0,57,-99.99,,,0.00,Acu-Link.com,2013-03-20 18:13:00,
2013-03-20 13:28:00,15.1,3.0,29.92,West,270,3.7,-999.0,58,-99.99,,,0.00,Acu-Link.com,2013-03-20 18:28:00,
2013-03-20 13:43:00,16.3,3.8,29.92,ESE,112,2.2,-999.0,57,-99.99,,,0.00,Acu-Link.com,2013-03-20 18:43:00,
2013-03-20 13:59:00,16.2,3.3,29.91,SW,225,4.7,-999.0,56,-99.99,,,0.00,Acu-Link.com,2013-03-20 18:59:00,
2013-03-20 14:14:00,15.4,3.7,29.91,WSW,247,3.2,-999.0,59,-99.99,,,0.00,Acu-Link.com,2013-03-20 19:14:00,
2013-03-20 14:29:00,16.3,3.4,29.91,WNW,292,4.2,-999.0,56,-99.99,,,0.00,Acu-Link.com,2013-03-20 19:29:00,
2013-03-20 14:44:00,15.8,3.3,29.93,NE,45,2.2,-999.0,57,-99.99,,,0.00,Acu-Link.com,2013-03-20 19:44:00,
2013-03-20 14:59:00,15.4,4.0,29.91,SW,225,2.7,-999.0,60,-99.99,,,0.00,Acu-Link.com,2013-03-20 19:59:00,
2013-03-20 15:14:00,16.3,4.5,29.92,SSW,202,3.2,-999.0,59,-99.99,,,0.00,Acu-Link.com,2013-03-20 20:14:00,
2013-03-20 15:29:00,16.2,3.7,29.91,West,270,2.7,-999.0,57,-99.99,,,0.00,Acu-Link.com,2013-03-20 20:29:00,
2013-03-20 15:45:00,16.9,4.7,29.91,WNW,292,3.2,-999.0,58,-99.99,,,0.00,Acu-Link.com,2013-03-20 20:45:00,
2013-03-20 16:00:00,17.1,4.1,29.92,North,0,3.7,-999.0,56,-99.99,,,0.00,Acu-Link.com,2013-03-20 21:00:00,
2013-03-20 16:15:00,16.5,4.3,29.92,West,270,2.2,-999.0,58,-99.99,,,0.00,Acu-Link.com,2013-03-20 21:15:00,
2013-03-20 16:30:00,16.3,4.5,29.93,ESE,112,2.2,-999.0,59,-99.99,,,0.00,Acu-Link.com,2013-03-20 21:30:00,
2013-03-20 16:45:00,16.3,4.1,29.94,West,270,2.7,-999.0,58,-99.99,,,0.00,Acu-Link.com,2013-03-20 21:45:00,
2013-03-20 17:16:00,17.8,4.8,29.94,NNW,337,2.2,-999.0,56,-99.99,,,0.00,Acu-Link.com,2013-03-20 22:16:00,
2013-03-20 17:47:00,16.5,4.3,29.95,SW,225,3.7,-999.0,58,-99.99,,,0.00,Acu-Link.com,2013-03-20 22:47:00,
2013-03-20 18:02:00,16.2,4.4,29.95,WNW,292,0.0,-999.0,59,-99.99,,,0.00,Acu-Link.com,2013-03-20 23:02:00,
2013-03-20 18:17:00,15.8,4.8,29.96,West,270,2.7,-999.0,61,-99.99,,,0.00,Acu-Link.com,2013-03-20 23:17:00,
2013-03-20 18:32:00,17.8,5.2,29.95,NW,315,2.2,-999.0,57,-99.99,,,0.00,Acu-Link.com,2013-03-20 23:32:00,
2013-03-20 18:47:00,15.8,3.7,29.95,West,270,2.7,-999.0,58,-99.99,,,0.00,Acu-Link.com,2013-03-20 23:47:00,
2013-03-20 19:02:00,14.5,2.8,29.95,WSW,247,4.2,-999.0,59,-99.99,,,0.00,Acu-Link.com,2013-03-21 00:02:00,
2013-03-20 19:18:00,13.8,2.2,29.97,West,270,2.7,-999.0,59,-99.99,,,0.00,Acu-Link.com,2013-03-21 00:18:00,
2013-03-20 19:33:00,13.6,2.7,29.96,West,270,2.2,-999.0,61,-99.99,,,0.00,Acu-Link.com,2013-03-21 00:33:00,
2013-03-20 19:48:00,13.6,3.4,29.97,WSW,247,2.2,-999.0,63,-99.99,,,0.00,Acu-Link.com,2013-03-21 00:48:00,
2013-03-20 20:03:00,13.3,3.8,29.96,WSW,247,2.7,-999.0,65,-99.99,,,0.00,Acu-Link.com,2013-03-21 01:03:00,
2013-03-20 20:18:00,13.1,4.2,29.97,WNW,292,1.7,-999.0,67,-99.99,,,0.00,Acu-Link.com,2013-03-21 01:18:00,
2013-03-20 20:34:00,12.7,4.2,29.96,West,270,3.2,-999.0,68,-99.99,,,0.00,Acu-Link.com,2013-03-21 01:34:00,
2013-03-20 20:49:00,12.2,4.3,29.96,WNW,292,2.2,-999.0,70,-99.99,,,0.00,Acu-Link.com,2013-03-21 01:49:00,
2013-03-20 21:04:00,10.8,3.3,29.98,ENE,67,0.0,-999.0,71,-99.99,,,0.00,Acu-Link.com,2013-03-21 02:04:00,
2013-03-20 21:19:00,9.1,1.9,29.96,West,270,0.0,-999.0,72,-99.99,,,0.00,Acu-Link.com,2013-03-21 02:19:00,
2013-03-20 21:35:00,7.7,1.2,29.98,West,270,0.0,-999.0,74,-99.99,,,0.00,Acu-Link.com,2013-03-21 02:35:00,
2013-03-20 21:50:00,6.8,1.1,29.97,SW,225,0.0,-999.0,77,-99.99,,,0.00,Acu-Link.com,2013-03-21 02:50:00,
2013-03-20 22:05:00,6.6,1.2,29.98,West,270,0.0,-999.0,78,-99.99,,,0.00,Acu-Link.com,2013-03-21 03:05:00,
2013-03-20 22:20:00,6.4,1.6,29.98,NE,45,0.0,-999.0,80,-99.99,,,0.00,Acu-Link.com,2013-03-21 03:20:00,
2013-03-20 22:36:00,7.5,3.2,29.99,WSW,247,0.0,-999.0,82,-99.99,,,0.00,Acu-Link.com,2013-03-21 03:36:00,
2013-03-20 22:51:00,7.3,3.5,29.98,SW,225,0.0,-999.0,84,-99.99,,,0.00,Acu-Link.com,2013-03-21 03:51:00,
2013-03-20 23:06:00,8.2,4.1,29.97,SSW,202,0.0,-999.0,83,-99.99,,,0.00,Acu-Link.com,2013-03-21 04:06:00,
2013-03-20 23:21:00,7.7,3.9,29.98,West,270,0.0,-999.0,84,-99.99,,,0.00,Acu-Link.com,2013-03-21 04:21:00,
2013-03-20 23:36:00,7.7,4.1,29.98,SW,225,0.0,-999.0,85,-99.99,,,0.00,Acu-Link.com,2013-03-21 04:36:00,